createdAt,value
2019-01-24T00:00:29.128Z,72.45
2019-01-24T00:01:09.675Z,72.55
2019-01-24T00:01:50.239Z,72.36
2019-01-24T00:02:30.801Z,72.92
2019-01-24T00:03:11.352Z,72.64
2019-01-24T00:03:51.893Z,72.92
2019-01-24T00:04:32.477Z,73.02
2019-01-24T00:05:13.038Z,73.02
2019-01-24T00:05:53.607Z,72.45
2019-01-24T00:06:34.160Z,72.92
2019-01-24T00:07:14.740Z,72.55
2019-01-24T00:07:55.276Z,72.26
2019-01-24T00:08:35.839Z,72.26
2019-01-24T00:09:16.419Z,72.17
2019-01-24T00:09:56.964Z,72.26
2019-01-24T00:10:37.552Z,72.07
2019-01-24T00:11:18.107Z,72.07
2019-01-24T00:11:58.664Z,71.79
2019-01-24T00:12:39.219Z,71.98
2019-01-24T00:13:19.800Z,71.79
2019-01-24T00:14:00.352Z,71.88
2019-01-24T00:14:40.915Z,71.98
2019-01-24T00:15:21.488Z,71.88
2019-01-24T00:16:02.059Z,71.79
2019-01-24T00:16:42.627Z,72.07
2019-01-24T00:17:23.182Z,72.26
2019-01-24T00:18:03.738Z,72.07
2019-01-24T00:18:44.307Z,72.17
2019-01-24T00:19:24.889Z,72.26
2019-01-24T00:20:05.472Z,72.45
2019-01-24T00:20:45.991Z,72.73
2019-01-24T00:21:26.566Z,72.26
2019-01-24T00:22:07.126Z,72.45
2019-01-24T00:22:47.862Z,72.36
2019-01-24T00:23:28.407Z,72.26
2019-01-24T00:24:08.969Z,72.07
2019-01-24T00:24:49.512Z,72.45
2019-01-24T00:25:30.059Z,72.36
2019-01-24T00:26:10.664Z,71.98
2019-01-24T00:26:51.211Z,71.69
2019-01-24T00:27:31.788Z,72.07
2019-01-24T00:28:12.346Z,71.79
2019-01-24T00:28:52.925Z,71.69
2019-01-24T00:29:33.482Z,71.69
2019-01-24T00:30:14.041Z,71.88
2019-01-24T00:30:54.599Z,71.79
2019-01-24T00:31:35.165Z,71.69
2019-01-24T00:32:15.731Z,71.88
2019-01-24T00:32:56.266Z,72.17
2019-01-24T00:33:36.858Z,71.98
2019-01-24T00:34:22.909Z,72.17
2019-01-24T00:34:57.941Z,71.69
2019-01-24T00:35:38.494Z,71.88
2019-01-24T00:36:19.064Z,71.6
2019-01-24T00:36:59.608Z,71.79
2019-01-24T00:37:40.178Z,71.98
2019-01-24T00:38:20.753Z,71.88
2019-01-24T00:39:01.323Z,71.88
2019-01-24T00:39:41.884Z,71.88
2019-01-24T00:40:22.442Z,71.79
2019-01-24T00:41:03.042Z,71.88
2019-01-24T00:41:43.593Z,71.98
2019-01-24T00:42:24.165Z,72.17
2019-01-24T00:43:04.754Z,72.07
2019-01-24T00:43:45.311Z,71.88
2019-01-24T00:44:25.863Z,72.17
2019-01-24T00:45:06.437Z,71.79
2019-01-24T00:45:46.989Z,71.79
2019-01-24T00:46:27.592Z,72.17
2019-01-24T00:47:08.129Z,71.6
2019-01-24T00:47:48.671Z,71.79
2019-01-24T00:48:29.221Z,71.79
2019-01-24T00:49:09.806Z,72.17
2019-01-24T00:49:50.367Z,72.17
2019-01-24T00:50:30.926Z,72.07
2019-01-24T00:51:11.515Z,71.6
2019-01-24T00:51:52.060Z,71.41
2019-01-24T00:52:32.610Z,71.6
2019-01-24T00:53:13.152Z,71.31
2019-01-24T00:53:53.712Z,71.5
2019-01-24T00:54:34.269Z,71.03
2019-01-24T00:55:14.844Z,71.03
2019-01-24T00:55:55.388Z,71.22
2019-01-24T00:56:35.941Z,71.31
2019-01-24T00:57:16.522Z,71.22
2019-01-24T00:57:57.146Z,71.5
2019-01-24T00:58:37.694Z,71.5
2019-01-24T00:59:18.240Z,71.5
2019-01-24T00:59:58.799Z,71.5
2019-01-24T01:00:39.391Z,71.6
2019-01-24T01:01:19.933Z,71.5
2019-01-24T01:02:00.486Z,71.5
2019-01-24T01:04:13.270Z,71.5
2019-01-24T01:04:53.826Z,71.31
2019-01-24T01:05:34.392Z,71.22
2019-01-24T01:06:14.939Z,71.5
2019-01-24T01:06:55.501Z,71.12
2019-01-24T01:07:36.068Z,71.5
2019-01-24T01:08:16.641Z,71.5
2019-01-24T01:08:57.172Z,71.5
2019-01-24T01:09:37.729Z,71.22
2019-01-24T01:10:18.325Z,71.22
2019-01-24T01:10:58.878Z,71.12
2019-01-24T01:11:39.456Z,71.12
2019-01-24T01:12:19.984Z,71.12
2019-01-24T01:13:00.537Z,71.03
2019-01-24T01:13:41.090Z,71.22
2019-01-24T01:14:21.651Z,70.94
2019-01-24T01:15:02.192Z,70.94
2019-01-24T01:15:42.803Z,70.84
2019-01-24T01:16:23.300Z,70.94
2019-01-24T01:17:03.870Z,70.94
2019-01-24T01:17:44.427Z,70.94
2019-01-24T01:18:25.020Z,71.03
2019-01-24T01:19:05.571Z,71.03
2019-01-24T01:19:46.124Z,71.12
2019-01-24T01:20:26.675Z,71.22
2019-01-24T01:21:07.209Z,71.22
2019-01-24T01:21:47.755Z,70.94
2019-01-24T01:22:28.565Z,70.84
2019-01-24T01:23:09.119Z,71.22
2019-01-24T01:23:49.669Z,71.03
2019-01-24T01:24:30.222Z,71.22
2019-01-24T01:25:10.805Z,71.5
2019-01-24T01:25:51.356Z,71.79
2019-01-24T01:26:31.913Z,71.6
2019-01-24T01:27:12.475Z,72.07
2019-01-24T01:27:53.031Z,71.6
2019-01-24T01:28:33.582Z,71.41
2019-01-24T01:29:14.145Z,71.5
2019-01-24T01:29:54.691Z,71.5
2019-01-24T01:30:35.257Z,71.22
2019-01-24T01:33:49.125Z,71.03
2019-01-24T01:34:32.809Z,71.41
2019-01-24T01:35:10.270Z,71.5
2019-01-24T01:35:50.809Z,71.69
2019-01-24T01:36:31.362Z,71.41
2019-01-24T01:37:11.923Z,71.5
2019-01-24T01:37:52.489Z,71.31
2019-01-24T01:38:33.061Z,71.41
2019-01-24T01:39:13.625Z,72.07
2019-01-24T01:39:54.179Z,71.79
2019-01-24T01:40:34.749Z,71.6
2019-01-24T01:41:15.313Z,72.07
2019-01-24T01:41:55.866Z,71.88
2019-01-24T01:42:36.421Z,71.6
2019-01-24T01:43:16.978Z,71.6
2019-01-24T01:43:57.522Z,71.79
2019-01-24T01:44:38.098Z,71.98
2019-01-24T01:45:18.695Z,72.07
2019-01-24T01:45:59.263Z,71.98
2019-01-24T01:46:39.846Z,71.31
2019-01-24T01:47:20.403Z,71.69
2019-01-24T01:48:00.954Z,71.69
2019-01-24T01:48:41.511Z,71.6
2019-01-24T01:49:22.093Z,71.5
2019-01-24T01:50:02.671Z,71.31
2019-01-24T01:50:43.280Z,71.41
2019-01-24T01:51:23.827Z,71.03
2019-01-24T01:52:04.382Z,71.03
2019-01-24T01:52:44.944Z,70.94
2019-01-24T01:53:25.489Z,71.03
2019-01-24T01:54:06.064Z,71.12
2019-01-24T01:54:46.631Z,71.41
2019-01-24T01:55:27.204Z,71.5
2019-01-24T01:56:07.772Z,71.22
2019-01-24T01:56:48.340Z,71.6
2019-01-24T01:57:28.886Z,71.5
2019-01-24T01:58:09.453Z,71.31
2019-01-24T01:58:50.024Z,71.41
2019-01-24T01:59:30.582Z,72.07
2019-01-24T02:00:11.129Z,71.5
2019-01-24T02:00:51.692Z,71.31
2019-01-24T02:01:32.256Z,71.5
2019-01-24T02:02:12.827Z,71.5
2019-01-24T02:02:53.415Z,71.41
2019-01-24T02:03:33.969Z,71.69
2019-01-24T02:04:14.516Z,71.41
2019-01-24T02:04:55.061Z,71.41
2019-01-24T02:05:35.613Z,71.03
2019-01-24T02:06:16.165Z,71.22
2019-01-24T02:06:56.740Z,71.03
2019-01-24T02:07:37.279Z,71.03
2019-01-24T02:08:17.863Z,71.12
2019-01-24T02:08:58.429Z,71.41
2019-01-24T02:09:38.974Z,71.41
2019-01-24T02:10:19.568Z,71.12
2019-01-24T02:11:00.118Z,71.41
2019-01-24T02:11:40.655Z,71.41
2019-01-24T02:12:21.223Z,71.12
2019-01-24T02:13:01.798Z,71.31
2019-01-24T02:13:42.351Z,71.22
2019-01-24T02:14:22.897Z,71.22
2019-01-24T02:15:03.450Z,71.22
2019-01-24T02:15:44.008Z,71.03
2019-01-24T02:16:24.559Z,70.84
2019-01-24T02:17:05.131Z,70.94
2019-01-24T02:17:45.710Z,70.94
2019-01-24T02:18:26.259Z,70.94
2019-01-24T02:19:06.813Z,70.84
2019-01-24T02:19:47.360Z,70.75
2019-01-24T02:20:27.924Z,70.94
2019-01-24T02:21:08.484Z,70.65
2019-01-24T02:21:49.076Z,70.65
2019-01-24T02:22:29.635Z,70.94
2019-01-24T02:23:10.181Z,70.94
2019-01-24T02:23:50.732Z,70.65
2019-01-24T02:24:31.282Z,70.65
2019-01-24T02:25:11.881Z,70.84
2019-01-24T02:25:52.402Z,70.65
2019-01-24T02:26:33.065Z,70.65
2019-01-24T02:27:13.627Z,71.03
2019-01-24T02:27:54.194Z,71.22
2019-01-24T02:28:34.752Z,71.12
2019-01-24T02:29:15.345Z,71.12
2019-01-24T02:29:55.912Z,71.31
2019-01-24T02:30:36.533Z,71.12
2019-01-24T02:31:17.020Z,71.22
2019-01-24T02:31:57.570Z,71.03
2019-01-24T02:32:38.120Z,71.5
2019-01-24T02:33:18.672Z,71.5
2019-01-24T02:33:59.238Z,71.41
2019-01-24T02:34:39.851Z,71.22
2019-01-24T02:35:20.422Z,71.5
2019-01-24T02:36:00.976Z,71.5
2019-01-24T02:36:41.547Z,71.31
2019-01-24T02:37:22.085Z,71.41
2019-01-24T02:38:02.645Z,71.5
2019-01-24T02:38:43.219Z,71.22
2019-01-24T02:39:23.758Z,71.03
2019-01-24T02:40:04.343Z,71.22
2019-01-24T02:40:44.888Z,71.6
2019-01-24T02:41:25.486Z,71.12
2019-01-24T02:42:06.033Z,71.12
2019-01-24T02:42:46.604Z,71.12
2019-01-24T02:43:27.149Z,71.03
2019-01-24T02:44:07.742Z,71.22
2019-01-24T02:44:48.313Z,71.31
2019-01-24T02:45:28.878Z,71.31
2019-01-24T02:46:09.449Z,71.22
2019-01-24T02:46:50.063Z,71.5
2019-01-24T02:47:30.625Z,71.79
2019-01-24T02:48:11.165Z,71.5
2019-01-24T02:48:51.737Z,71.5
2019-01-24T02:49:32.293Z,71.31
2019-01-24T02:50:12.839Z,72.07
2019-01-24T02:50:53.392Z,71.98
2019-01-24T02:51:33.991Z,72.07
2019-01-24T02:52:14.561Z,71.31
2019-01-24T02:52:55.114Z,71.41
2019-01-24T02:53:35.692Z,71.79
2019-01-24T02:54:16.274Z,72.07
2019-01-24T02:54:56.861Z,72.17
2019-01-24T02:55:37.431Z,71.98
2019-01-24T02:56:17.978Z,71.79
2019-01-24T02:56:58.537Z,71.98
2019-01-24T02:57:39.090Z,71.6
2019-01-24T02:58:19.643Z,71.79
2019-01-24T02:59:00.197Z,71.69
2019-01-24T02:59:40.774Z,71.6
2019-01-24T03:00:21.327Z,71.79
2019-01-24T03:01:01.881Z,71.69
2019-01-24T03:01:42.443Z,72.07
2019-01-24T03:02:22.992Z,71.6
2019-01-24T03:03:03.548Z,72.07
2019-01-24T03:03:44.117Z,71.5
2019-01-24T03:04:24.682Z,71.6
2019-01-24T03:05:05.214Z,71.6
2019-01-24T03:05:45.805Z,71.5
2019-01-24T03:06:26.339Z,71.41
2019-01-24T03:07:06.907Z,71.31
2019-01-24T03:07:47.482Z,71.79
2019-01-24T03:08:28.026Z,71.03
2019-01-24T03:09:08.592Z,71.69
2019-01-24T03:09:49.184Z,71.98
2019-01-24T03:10:29.704Z,71.98
2019-01-24T03:11:10.252Z,72.07
2019-01-24T03:11:50.799Z,72.07
2019-01-24T03:12:31.348Z,71.88
2019-01-24T03:13:11.905Z,71.6
2019-01-24T03:13:52.457Z,71.79
2019-01-24T03:14:33.031Z,71.69
2019-01-24T03:15:13.594Z,72.07
2019-01-24T03:15:54.127Z,71.88
2019-01-24T03:16:34.677Z,71.79
2019-01-24T03:17:15.229Z,71.5
2019-01-24T03:17:55.766Z,71.79
2019-01-24T03:18:36.334Z,71.98
2019-01-24T03:19:16.885Z,71.88
2019-01-24T03:19:57.429Z,71.79
2019-01-24T03:20:37.971Z,71.79
2019-01-24T03:21:18.535Z,71.98
2019-01-24T03:21:59.092Z,71.88
2019-01-24T03:22:39.890Z,71.98
2019-01-24T03:23:20.455Z,71.79
2019-01-24T03:24:01.061Z,71.98
2019-01-24T03:24:41.612Z,72.17
2019-01-24T03:25:22.175Z,72.07
2019-01-24T03:26:02.711Z,72.07
2019-01-24T03:26:43.259Z,71.98
2019-01-24T03:27:23.807Z,71.98
2019-01-24T03:28:04.368Z,71.79
2019-01-24T03:28:44.941Z,71.79
2019-01-24T03:29:25.509Z,71.79
2019-01-24T03:30:06.039Z,71.69
2019-01-24T03:30:46.599Z,71.88
2019-01-24T03:31:27.202Z,71.88
2019-01-24T03:32:07.756Z,71.79
2019-01-24T03:32:48.294Z,71.69
2019-01-24T03:33:28.840Z,71.79
2019-01-24T03:34:09.392Z,71.88
2019-01-24T03:34:49.942Z,71.88
2019-01-24T03:35:30.523Z,71.88
2019-01-24T03:36:11.059Z,71.88
2019-01-24T03:36:51.612Z,71.98
2019-01-24T03:37:32.169Z,71.98
2019-01-24T03:38:12.726Z,72.07
2019-01-24T03:38:53.256Z,72.07
2019-01-24T03:39:33.817Z,71.98
2019-01-24T03:40:14.359Z,72.17
2019-01-24T03:40:54.916Z,71.69
2019-01-24T03:41:35.476Z,71.98
2019-01-24T03:42:16.013Z,71.98
2019-01-24T03:42:56.598Z,72.07
2019-01-24T03:43:37.195Z,71.88
2019-01-24T03:44:17.740Z,72.07
2019-01-24T03:44:58.287Z,71.88
2019-01-24T03:45:38.847Z,71.88
2019-01-24T03:46:19.402Z,71.79
2019-01-24T03:46:59.949Z,72.07
2019-01-24T03:47:40.512Z,71.79
2019-01-24T03:48:21.064Z,71.69
2019-01-24T03:49:01.625Z,72.07
2019-01-24T03:49:42.182Z,71.98
2019-01-24T03:50:22.736Z,71.79
2019-01-24T03:51:03.282Z,71.88
2019-01-24T03:51:43.835Z,71.98
2019-01-24T03:52:24.385Z,71.79
2019-01-24T03:53:04.955Z,71.79
2019-01-24T03:53:45.557Z,72.07
2019-01-24T03:54:26.127Z,71.79
2019-01-24T03:55:06.650Z,72.17
2019-01-24T03:55:47.214Z,72.07
2019-01-24T03:56:27.777Z,72.07
2019-01-24T03:57:08.343Z,71.88
2019-01-24T03:57:48.879Z,71.88
2019-01-24T03:58:29.430Z,71.88
2019-01-24T03:59:09.981Z,71.98
2019-01-24T03:59:50.542Z,72.07
2019-01-24T04:00:31.081Z,71.98
2019-01-24T04:01:11.634Z,72.07
2019-01-24T04:01:52.195Z,71.98
2019-01-24T04:02:32.785Z,71.88
2019-01-24T04:03:13.334Z,71.98
2019-01-24T04:03:53.872Z,71.88
2019-01-24T04:04:34.444Z,71.98
2019-01-24T04:05:15.007Z,71.69
2019-01-24T04:05:55.570Z,71.98
2019-01-24T04:06:36.150Z,71.6
2019-01-24T04:07:16.689Z,71.98
2019-01-24T04:07:57.231Z,71.88
2019-01-24T04:08:37.790Z,71.79
2019-01-24T04:09:18.340Z,71.79
2019-01-24T04:09:58.919Z,71.69
2019-01-24T04:10:39.453Z,71.88
2019-01-24T04:11:20.049Z,71.88
2019-01-24T04:12:00.620Z,71.88
2019-01-24T04:12:41.180Z,71.98
2019-01-24T04:13:21.758Z,71.88
2019-01-24T04:14:02.317Z,71.69
2019-01-24T04:14:42.872Z,71.69
2019-01-24T04:15:23.473Z,71.6
2019-01-24T04:16:04.020Z,71.88
2019-01-24T04:16:44.575Z,71.98
2019-01-24T04:17:25.126Z,72.07
2019-01-24T04:18:06.572Z,71.98
2019-01-24T04:18:47.144Z,71.79
2019-01-24T04:19:27.685Z,71.88
2019-01-24T04:20:08.324Z,71.88
2019-01-24T04:20:48.846Z,71.6
2019-01-24T04:21:29.413Z,71.69
2019-01-24T04:22:09.967Z,71.79
2019-01-24T04:22:50.519Z,71.69
2019-01-24T04:23:31.069Z,71.6
2019-01-24T04:24:11.633Z,71.98
2019-01-24T04:24:52.195Z,71.5
2019-01-24T04:25:32.761Z,71.88
2019-01-24T04:26:13.324Z,71.98
2019-01-24T04:26:53.888Z,71.69
2019-01-24T04:27:34.446Z,71.79
2019-01-24T04:28:15.023Z,72.17
2019-01-24T04:28:55.565Z,71.98
2019-01-24T04:29:36.128Z,72.17
2019-01-24T04:30:16.687Z,72.17
2019-01-24T04:30:57.259Z,71.6
2019-01-24T04:31:37.815Z,71.79
2019-01-24T04:32:18.370Z,71.88
2019-01-24T04:32:58.934Z,72.17
2019-01-24T04:33:39.505Z,72.17
2019-01-24T04:34:20.056Z,71.69
2019-01-24T04:35:00.614Z,72.07
2019-01-24T04:35:41.176Z,71.79
2019-01-24T04:36:21.737Z,71.88
2019-01-24T04:37:02.280Z,72.07
2019-01-24T04:37:42.842Z,72.17
2019-01-24T04:38:23.400Z,71.88
2019-01-24T04:39:03.958Z,71.6
2019-01-24T04:39:44.513Z,71.69
2019-01-24T04:40:25.059Z,71.79
2019-01-24T04:41:05.635Z,71.88
2019-01-24T04:41:46.194Z,71.6
2019-01-24T04:42:26.740Z,71.88
2019-01-24T04:43:07.297Z,71.79
2019-01-24T04:43:47.898Z,71.69
2019-01-24T04:44:28.443Z,71.88
2019-01-24T04:45:09.007Z,71.69
2019-01-24T04:45:49.555Z,71.69
2019-01-24T04:46:30.106Z,71.69
2019-01-24T04:47:10.648Z,71.88
2019-01-24T04:47:51.218Z,72.26
2019-01-24T04:48:31.798Z,72.07
2019-01-24T04:49:12.348Z,71.98
2019-01-24T04:49:52.914Z,72.26
2019-01-24T04:50:33.467Z,71.88
2019-01-24T04:51:14.009Z,72.17
2019-01-24T04:51:54.605Z,72.07
2019-01-24T04:52:35.190Z,72.26
2019-01-24T04:53:15.753Z,72.17
2019-01-24T04:53:56.315Z,72.07
2019-01-24T04:54:36.846Z,72.07
2019-01-24T04:55:17.407Z,72.17
2019-01-24T04:55:57.986Z,71.69
2019-01-24T04:56:38.547Z,71.6
2019-01-24T04:57:19.079Z,71.69
2019-01-24T04:57:59.660Z,71.98
2019-01-24T04:58:40.212Z,71.98
2019-01-24T04:59:20.762Z,71.79
2019-01-24T05:00:01.377Z,71.88
2019-01-24T05:00:41.895Z,71.98
2019-01-24T05:01:22.460Z,71.69
2019-01-24T05:02:03.015Z,71.88
2019-01-24T05:02:43.576Z,71.88
2019-01-24T05:03:24.132Z,71.79
2019-01-24T05:04:04.685Z,71.6
2019-01-24T05:04:45.254Z,71.98
2019-01-24T05:05:27.753Z,71.31
2019-01-24T05:06:06.396Z,71.31
2019-01-24T05:06:46.980Z,71.22
2019-01-24T05:07:27.595Z,71.41
2019-01-24T05:08:08.365Z,71.22
2019-01-24T05:08:48.939Z,72.07
2019-01-24T05:09:29.500Z,71.79
2019-01-24T05:10:10.067Z,71.69
2019-01-24T05:10:50.626Z,71.69
2019-01-24T05:11:31.188Z,71.5
2019-01-24T05:12:11.780Z,71.5
2019-01-24T05:12:52.347Z,71.69
2019-01-24T05:13:32.910Z,72.17
2019-01-24T05:14:13.502Z,71.5
2019-01-24T05:14:54.064Z,71.5
2019-01-24T05:15:34.625Z,71.5
2019-01-24T05:16:15.171Z,71.5
2019-01-24T05:16:55.739Z,71.5
2019-01-24T05:17:36.303Z,71.79
2019-01-24T05:18:16.892Z,71.69
2019-01-24T05:18:57.468Z,71.88
2019-01-24T05:19:38.044Z,71.69
2019-01-24T05:20:18.599Z,71.79
2019-01-24T05:20:59.164Z,71.88
2019-01-24T05:21:39.706Z,71.79
2019-01-24T05:22:20.304Z,71.79
2019-01-24T05:23:00.851Z,72.17
2019-01-24T05:23:41.424Z,71.31
2019-01-24T05:24:21.978Z,71.79
2019-01-24T05:25:02.575Z,71.6
2019-01-24T05:25:43.117Z,71.12
2019-01-24T05:26:23.690Z,71.5
2019-01-24T05:27:04.237Z,71.5
2019-01-24T05:27:44.782Z,71.41
2019-01-24T05:28:25.359Z,70.94
2019-01-24T05:29:05.922Z,71.12
2019-01-24T05:29:46.475Z,71.22
2019-01-24T05:30:27.041Z,71.12
2019-01-24T05:31:07.604Z,71.12
2019-01-24T05:31:48.148Z,71.03
2019-01-24T05:32:28.715Z,71.22
2019-01-24T05:33:09.273Z,71.5
2019-01-24T05:33:49.837Z,71.5
2019-01-24T05:34:30.389Z,71.22
2019-01-24T05:35:10.937Z,71.03
2019-01-24T05:35:51.506Z,71.12
2019-01-24T05:36:32.075Z,71.22
2019-01-24T05:37:12.647Z,71.03
2019-01-24T05:37:53.185Z,70.94
2019-01-24T05:38:33.740Z,71.03
2019-01-24T05:39:14.321Z,71.12
2019-01-24T05:39:54.863Z,70.84
2019-01-24T05:40:35.407Z,70.84
2019-01-24T05:41:15.956Z,71.22
2019-01-24T05:41:56.526Z,70.94
2019-01-24T05:42:37.158Z,71.41
2019-01-24T05:43:17.679Z,71.31
2019-01-24T05:43:58.250Z,71.31
2019-01-24T05:44:38.804Z,71.22
2019-01-24T05:45:19.379Z,71.31
2019-01-24T05:45:59.995Z,71.41
2019-01-24T05:46:40.547Z,71.31
2019-01-24T05:47:21.101Z,71.41
2019-01-24T05:48:01.666Z,71.03
2019-01-24T05:48:42.324Z,71.22
2019-01-24T05:49:22.972Z,70.84
2019-01-24T05:50:03.723Z,71.03
2019-01-24T05:50:44.432Z,71.31
2019-01-24T05:51:25.011Z,70.94
2019-01-24T05:52:05.621Z,71.03
2019-01-24T05:52:46.173Z,71.22
2019-01-24T05:53:26.718Z,71.41
2019-01-24T05:54:07.282Z,71.5
2019-01-24T05:54:47.823Z,71.12
2019-01-24T05:55:28.365Z,71.12
2019-01-24T05:56:09.074Z,70.84
2019-01-24T05:56:50.119Z,70.65
2019-01-24T05:57:30.960Z,70.94
2019-01-24T05:58:11.507Z,70.84
2019-01-24T05:58:52.090Z,70.94
2019-01-24T05:59:32.686Z,70.84
2019-01-24T06:00:13.246Z,70.75
2019-01-24T06:00:53.789Z,70.75
2019-01-24T06:01:34.351Z,70.56
2019-01-24T06:02:14.925Z,70.37
2019-01-24T06:02:55.470Z,70.65
2019-01-24T06:03:36.085Z,70.56
2019-01-24T06:04:16.634Z,70.56
2019-01-24T06:04:57.183Z,70.65
2019-01-24T06:05:41.677Z,70.75
2019-01-24T06:06:18.279Z,70.65
2019-01-24T06:06:58.848Z,71.69
2019-01-24T06:07:39.412Z,78.68
2019-01-24T06:08:19.959Z,82.79
2019-01-24T06:09:00.522Z,84.39
2019-01-24T06:09:41.108Z,84.58
2019-01-24T06:10:21.671Z,86.66
2019-01-24T06:11:02.287Z,85.76
2019-01-24T06:11:42.870Z,85.76
2019-01-24T06:12:23.420Z,87.08
2019-01-24T06:13:03.987Z,87.13
2019-01-24T06:13:44.545Z,86.66
2019-01-24T06:14:25.113Z,83.15
2019-01-24T06:15:05.682Z,81.26
2019-01-24T06:15:46.230Z,81.49
2019-01-24T06:16:26.788Z,83.01
2019-01-24T06:17:07.346Z,83.1
2019-01-24T06:17:47.906Z,82.06
2019-01-24T06:18:28.471Z,79.13
2019-01-24T06:19:09.080Z,74.3
2019-01-24T06:19:49.614Z,69.85
2019-01-24T06:20:30.207Z,65.97
2019-01-24T06:21:10.768Z,64.26
2019-01-24T06:21:51.324Z,63.32
2019-01-24T06:22:31.909Z,62.72
2019-01-24T06:23:12.932Z,62.06
2019-01-24T06:23:53.568Z,62.44
2019-01-24T06:24:34.105Z,62.34
2019-01-24T06:25:14.662Z,62.15
2019-01-24T06:25:55.221Z,62.59
2019-01-24T06:26:35.810Z,62.97
2019-01-24T06:27:16.362Z,63.26
2019-01-24T06:27:56.929Z,63.54
2019-01-24T06:28:37.475Z,63.73
2019-01-24T06:29:18.064Z,64.11
2019-01-24T06:29:58.649Z,64.11
2019-01-24T06:30:39.229Z,64.29
2019-01-24T06:31:19.779Z,64.29
2019-01-24T06:32:00.353Z,64.86
2019-01-24T06:32:40.912Z,65.02
2019-01-24T06:33:21.459Z,65.3
2019-01-24T06:34:02.012Z,65.11
2019-01-24T06:34:42.570Z,65.49
2019-01-24T06:35:23.119Z,65.68
2019-01-24T06:36:03.669Z,65.68
2019-01-24T06:36:44.227Z,66.25
2019-01-24T06:37:24.766Z,66.44
2019-01-24T06:38:05.306Z,66.53
2019-01-24T06:38:45.859Z,66.53
2019-01-24T06:39:26.409Z,66.91
2019-01-24T06:40:06.976Z,66.72
2019-01-24T06:40:47.518Z,66.72
2019-01-24T06:41:28.068Z,66.72
2019-01-24T06:42:08.631Z,66.72
2019-01-24T06:42:49.182Z,67.1
2019-01-24T06:43:29.844Z,67.29
2019-01-24T06:44:10.393Z,67.29
2019-01-24T06:44:50.993Z,67.19
2019-01-24T06:45:31.582Z,67.19
2019-01-24T06:46:12.140Z,67.76
2019-01-24T06:46:52.704Z,68.14
2019-01-24T06:47:33.263Z,68.14
2019-01-24T06:48:13.837Z,68.39
2019-01-24T06:48:54.411Z,68.23
2019-01-24T06:49:34.984Z,68.1
2019-01-24T06:50:15.534Z,68.23
2019-01-24T06:50:56.106Z,67.95
2019-01-24T06:51:36.693Z,68.23
2019-01-24T06:52:17.257Z,68.23
2019-01-24T06:52:57.839Z,68.14
2019-01-24T06:53:38.371Z,68.33
2019-01-24T06:54:18.948Z,67.95
2019-01-24T06:54:59.522Z,68.42
2019-01-24T06:55:40.054Z,68.61
2019-01-24T06:56:20.594Z,68.8
2019-01-24T06:57:01.141Z,68.67
2019-01-24T06:57:41.714Z,68.9
2019-01-24T06:58:22.284Z,68.71
2019-01-24T06:59:02.880Z,68.29
2019-01-24T06:59:43.434Z,68.39
2019-01-24T07:00:24.034Z,68.2
2019-01-24T07:01:04.723Z,68.2
2019-01-24T07:01:45.296Z,68.2
2019-01-24T07:02:25.848Z,68.1
2019-01-24T07:04:13.367Z,68.2
2019-01-24T07:04:54.004Z,68.39
2019-01-24T07:05:34.588Z,68.76
2019-01-24T07:06:15.169Z,69.05
2019-01-24T07:06:55.987Z,69.05
2019-01-24T07:07:37.963Z,68.86
2019-01-24T07:08:17.275Z,68.95
2019-01-24T07:08:57.859Z,68.76
2019-01-24T07:09:38.445Z,69.33
2019-01-24T07:10:19.021Z,69.14
2019-01-24T07:10:59.590Z,69.14
2019-01-24T07:11:40.168Z,69.05
2019-01-24T07:12:20.791Z,69.14
2019-01-24T07:13:01.361Z,68.86
2019-01-24T07:13:41.914Z,69.62
2019-01-24T07:14:22.448Z,69.43
2019-01-24T07:15:03.255Z,69.52
2019-01-24T07:15:44.149Z,69.52
2019-01-24T07:16:24.725Z,69.62
2019-01-24T07:17:05.319Z,69.52
2019-01-24T07:17:45.904Z,69.62
2019-01-24T07:18:26.454Z,69.62
2019-01-24T07:19:07.092Z,69.71
2019-01-24T07:19:47.679Z,69.33
2019-01-24T07:20:28.232Z,69.52
2019-01-24T07:21:08.773Z,68.95
2019-01-24T07:21:49.448Z,69.24
2019-01-24T07:22:30.015Z,68.95
2019-01-24T07:23:10.859Z,68.67
2019-01-24T07:23:51.468Z,69.14
2019-01-24T07:24:32.022Z,69.05
2019-01-24T07:25:12.581Z,69.24
2019-01-24T07:25:53.133Z,69.24
2019-01-24T07:26:33.776Z,69.24
2019-01-24T07:27:14.330Z,68.67
2019-01-24T07:27:54.932Z,68.86
2019-01-24T07:28:35.549Z,69.24
2019-01-24T07:29:18.026Z,69.33
2019-01-24T07:29:58.615Z,69.14
2019-01-24T07:30:39.181Z,69.62
2019-01-24T07:31:19.984Z,69.52
2019-01-24T07:32:00.561Z,69.71
2019-01-24T07:32:41.118Z,69.14
2019-01-24T07:33:21.651Z,69.24
2019-01-24T07:34:02.224Z,69.14
2019-01-24T07:34:42.772Z,69.14
2019-01-24T07:35:23.367Z,69.14
2019-01-24T07:36:03.946Z,68.86
2019-01-24T07:36:44.559Z,69.62
2019-01-24T07:37:25.119Z,69.14
2019-01-24T07:38:06.339Z,69.14
2019-01-24T07:38:46.260Z,68.76
2019-01-24T07:39:26.867Z,68.86
2019-01-24T07:40:07.459Z,69.05
2019-01-24T07:40:48.089Z,69.05
2019-01-24T07:41:28.666Z,69.33
2019-01-24T07:42:09.245Z,69.05
2019-01-24T07:42:49.922Z,68.86
2019-01-24T07:43:30.487Z,69.62
2019-01-24T07:44:11.036Z,69.62
2019-01-24T07:44:51.633Z,69.62
2019-01-24T07:45:32.208Z,69.62
2019-01-24T07:46:12.794Z,68.86
2019-01-24T07:46:53.407Z,69.05
2019-01-24T07:47:33.963Z,69.24
2019-01-24T07:48:14.536Z,69.05
2019-01-24T07:48:55.126Z,68.57
2019-01-24T07:49:35.699Z,68.86
2019-01-24T07:50:16.240Z,69.05
2019-01-24T07:50:56.875Z,68.95
2019-01-24T07:51:37.455Z,69.05
2019-01-24T07:52:18.024Z,68.95
2019-01-24T07:52:58.569Z,68.76
2019-01-24T07:53:39.123Z,69.81
2019-01-24T07:54:19.692Z,69.43
2019-01-24T07:55:00.258Z,69.33
2019-01-24T07:55:40.871Z,69.52
2019-01-24T07:56:21.414Z,69.52
2019-01-24T07:57:01.976Z,69.81
2019-01-24T07:57:42.535Z,69.33
2019-01-24T07:58:23.074Z,69.52
2019-01-24T07:59:03.638Z,69.62
2019-01-24T07:59:44.202Z,69.24
2019-01-24T08:00:25.038Z,69.33
2019-01-24T08:01:05.889Z,69.52
2019-01-24T08:01:46.442Z,69.52
2019-01-24T08:02:27.009Z,69.43
2019-01-24T08:03:07.576Z,69.43
2019-01-24T08:03:48.135Z,69.71
2019-01-24T08:04:28.720Z,69.71
2019-01-24T08:05:09.263Z,69.62
2019-01-24T08:05:49.809Z,69.81
2019-01-24T08:06:30.367Z,69.52
2019-01-24T08:07:10.971Z,70.28
2019-01-24T08:07:51.531Z,70.28
2019-01-24T08:08:32.552Z,70.37
2019-01-24T08:09:13.112Z,70.09
2019-01-24T08:09:53.853Z,70.18
2019-01-24T08:10:34.402Z,69.9
2019-01-24T08:11:14.964Z,69.52
2019-01-24T08:11:55.501Z,70
2019-01-24T08:12:36.165Z,70
2019-01-24T08:13:16.669Z,69.62
2019-01-24T08:13:57.244Z,69.71
2019-01-24T08:14:37.806Z,70.09
2019-01-24T08:15:18.385Z,70.18
2019-01-24T08:15:58.930Z,70.18
2019-01-24T08:16:39.599Z,70.28
2019-01-24T08:17:20.143Z,70
2019-01-24T08:18:00.701Z,69.9
2019-01-24T08:18:41.298Z,69.9
2019-01-24T08:19:21.869Z,70.18
2019-01-24T08:20:02.493Z,70.18
2019-01-24T08:20:44.040Z,69.81
2019-01-24T08:21:23.712Z,69.52
2019-01-24T08:22:04.260Z,69.71
2019-01-24T08:22:44.893Z,69.81
2019-01-24T08:23:25.448Z,69.62
2019-01-24T08:24:06.005Z,69.71
2019-01-24T08:24:46.563Z,70
2019-01-24T08:25:27.166Z,69.71
2019-01-24T08:26:07.689Z,69.71
2019-01-24T08:26:48.299Z,69.71
2019-01-24T08:27:29.928Z,69.52
2019-01-24T08:28:09.431Z,69.43
2019-01-24T08:28:49.984Z,69.43
2019-01-24T08:29:30.584Z,69.52
2019-01-24T08:30:11.190Z,69.33
2019-01-24T08:30:51.723Z,69.62
2019-01-24T08:31:32.347Z,69.14
2019-01-24T08:32:12.915Z,69.71
2019-01-24T08:32:53.519Z,69.62
2019-01-24T08:33:34.054Z,69.33
2019-01-24T08:34:15.026Z,69.52
2019-01-24T08:34:55.616Z,69.43
2019-01-24T08:35:36.172Z,69.81
2019-01-24T08:36:16.712Z,69.62
2019-01-24T08:36:57.366Z,69.33
2019-01-24T08:37:37.906Z,69.52
2019-01-24T08:38:18.452Z,69.71
2019-01-24T08:38:59.008Z,69.14
2019-01-24T08:39:39.764Z,69.05
2019-01-24T08:40:20.333Z,69.05
2019-01-24T08:41:00.968Z,69.33
2019-01-24T08:41:41.538Z,68.76
2019-01-24T08:42:22.100Z,69.05
2019-01-24T08:43:02.656Z,69.05
2019-01-24T08:43:43.249Z,68.39
2019-01-24T08:44:23.822Z,68.67
2019-01-24T08:45:04.390Z,69.05
2019-01-24T08:45:45.030Z,69.05
2019-01-24T08:46:25.574Z,68.39
2019-01-24T08:47:06.155Z,67.91
2019-01-24T08:47:46.704Z,68.29
2019-01-24T08:48:27.255Z,68.29
2019-01-24T08:49:07.818Z,68.29
2019-01-24T08:49:48.379Z,68.39
2019-01-24T08:50:29.057Z,68.57